Time;durP1;ratioP1;P1;durP2;ratioP2;P2;SDS_P1;SDS_P2;PMS_P1;PMS_P2;Temp;Humidity;BMP_temperature;BMP_pressure;BME280_temperature;BME280_humidity;BME280_pressure;Samples;Min_cycle;Max_cycle;Signal;HPM_P1;HPM_P2
2023/10/29 00:01:30;;;;;;;5.20;4.70;;;;;;;;;;5012987;28;20261;-51
2023/10/29 00:03:56;;;;;;;5.97;4.20;;;;;;;;;;5013164;28;20312;-52
2023/10/29 00:06:22;;;;;;;9.00;5.03;;;;;;;;;;5013283;28;20580;-52
2023/10/29 00:08:48;;;;;;;6.03;4.63;;;;;;;;;;5013326;28;20197;-52
2023/10/29 00:11:15;;;;;;;7.03;4.70;;;;;;;;;;5013351;28;20189;-52
2023/10/29 00:13:41;;;;;;;5.90;4.33;;;;;;;;;;5012695;28;20201;-52
2023/10/29 00:16:07;;;;;;;7.53;4.63;;;;;;;;;;5012967;28;20229;-52
2023/10/29 00:18:33;;;;;;;5.57;4.33;;;;;;;;;;5011125;28;20256;-52
2023/10/29 00:20:59;;;;;;;7.97;4.33;;;;;;;;;;5011395;28;20205;-52
2023/10/29 00:23:25;;;;;;;5.37;4.37;;;;;;;;;;5012845;28;20224;-52
2023/10/29 00:25:51;;;;;;;5.17;4.23;;;;;;;;;;5012194;28;20201;-50
2023/10/29 00:28:19;;;;;;;9.37;4.67;;;;;;;;;;5012961;28;20569;-49
2023/10/29 00:30:45;;;;;;;5.47;4.10;;;;;;;;;;5012858;28;20205;-51
2023/10/29 00:33:11;;;;;;;5.73;4.33;;;;;;;;;;5012589;28;20774;-52
2023/10/29 00:35:37;;;;;;;8.80;4.93;;;;;;;;;;5012694;28;20197;-51
2023/10/29 00:38:03;;;;;;;4.80;4.03;;;;;;;;;;5012799;28;20280;-51
2023/10/29 00:40:30;;;;;;;7.83;4.13;;;;;;;;;;5012635;28;20251;-50
2023/10/29 00:42:57;;;;;;;7.93;4.60;;;;;;;;;;5012431;28;20246;-51
2023/10/29 00:45:25;;;;;;;5.33;4.83;;;;;;;;;;5012598;28;20202;-51
2023/10/29 00:47:51;;;;;;;7.40;4.97;;;;;;;;;;5012415;28;20201;-51
2023/10/29 00:50:17;;;;;;;8.77;5.37;;;;;;;;;;5012698;28;20690;-51
2023/10/29 00:52:43;;;;;;;6.57;5.03;;;;;;;;;;5012422;28;20193;-51
2023/10/29 00:55:10;;;;;;;9.53;4.50;;;;;;;;;;5012294;28;20198;-51
2023/10/29 00:57:36;;;;;;;6.70;4.87;;;;;;;;;;5012340;28;20201;-51
2023/10/29 01:00:03;;;;;;;6.30;4.43;;;;;;;;;;5012414;28;20279;-51
2023/10/29 01:02:31;;;;;;;5.37;4.33;;;;;;;;;;5010712;28;20201;-51
2023/10/29 01:04:58;;;;;;;8.63;4.90;;;;;;;;;;5012256;28;20206;-51
2023/10/29 01:07:24;;;;;;;7.17;5.23;;;;;;;;;;5012474;28;20233;-51
2023/10/29 01:09:50;;;;;;;5.00;4.37;;;;;;;;;;5012369;28;20641;-51
2023/10/29 01:12:17;;;;;;;6.63;4.60;;;;;;;;;;5012292;28;20217;-51
2023/10/29 01:14:43;;;;;;;7.03;4.20;;;;;;;;;;5012370;28;20200;-51
2023/10/29 01:17:09;;;;;;;5.20;4.17;;;;;;;;;;5012241;28;20412;-51
2023/10/29 01:19:36;;;;;;;4.83;4.20;;;;;;;;;;5012073;28;20256;-51
2023/10/29 01:22:02;;;;;;;6.90;4.10;;;;;;;;;;5012139;28;20229;-51
2023/10/29 01:24:28;;;;;;;5.27;4.30;;;;;;;;;;5006945;28;20194;-51
2023/10/29 01:26:54;;;;;;;4.90;3.93;;;;;;;;;;5010224;28;20208;-51
2023/10/29 01:29:20;;;;;;;4.97;3.87;;;;;;;;;;5006854;28;20193;-51
2023/10/29 01:31:48;;;;;;;4.10;3.70;;;;;;;;;;5010327;28;20580;-51
2023/10/29 01:34:14;;;;;;;4.70;3.60;;;;;;;;;;5008752;28;20201;-51
2023/10/29 01:36:41;;;;;;;4.50;3.60;;;;;;;;;;5006681;28;20611;-52
2023/10/29 01:39:07;;;;;;;4.53;3.83;;;;;;;;;;5011618;28;20639;-52
2023/10/29 01:41:33;;;;;;;6.47;4.10;;;;;;;;;;5010253;28;20248;-52
2023/10/29 01:44:00;;;;;;;4.40;4.00;;;;;;;;;;5008300;28;20238;-51
2023/10/29 01:46:27;;;;;;;4.93;4.00;;;;;;;;;;5008418;28;20197;-51
2023/10/29 01:48:54;;;;;;;5.40;3.53;;;;;;;;;;5009917;28;20659;-51
2023/10/29 01:51:20;;;;;;;4.27;3.70;;;;;;;;;;5010064;28;20229;-52
2023/10/29 01:53:48;;;;;;;4.13;3.67;;;;;;;;;;5010084;28;20209;-51
2023/10/29 01:56:14;;;;;;;4.53;3.77;;;;;;;;;;5006252;28;20190;-51
2023/10/29 01:58:40;;;;;;;4.97;4.00;;;;;;;;;;5005028;28;20225;-52
2023/10/29 02:01:09;;;;;;;4.40;3.63;;;;;;;;;;5004977;28;20205;-50
2023/10/29 02:03:35;;;;;;;4.30;3.90;;;;;;;;;;5003164;28;20260;-51
2023/10/29 02:06:01;;;;;;;4.37;3.80;;;;;;;;;;5003213;28;20206;-50
2023/10/29 02:08:27;;;;;;;8.20;3.93;;;;;;;;;;5003110;28;20190;-50
2023/10/29 02:10:54;;;;;;;6.93;3.40;;;;;;;;;;5001227;28;20202;-51
2023/10/29 02:13:20;;;;;;;3.77;3.03;;;;;;;;;;5001342;28;20198;-50
2023/10/29 02:15:46;;;;;;;3.37;3.03;;;;;;;;;;4999636;28;20312;-49
2023/10/29 02:18:13;;;;;;;4.53;3.20;;;;;;;;;;5003060;28;20284;-50
2023/10/29 02:20:39;;;;;;;3.47;2.70;;;;;;;;;;5001189;28;20723;-50
2023/10/29 02:23:06;;;;;;;4.03;3.17;;;;;;;;;;5003253;28;20209;-50
2023/10/29 02:25:32;;;;;;;5.77;3.07;;;;;;;;;;5001457;28;20225;-50
2023/10/29 02:27:58;;;;;;;4.60;2.90;;;;;;;;;;5003375;28;20217;-50
2023/10/29 02:30:24;;;;;;;3.40;2.90;;;;;;;;;;5001157;28;20296;-51
2023/10/29 02:32:50;;;;;;;5.37;2.90;;;;;;;;;;5002762;28;20217;-50
2023/10/29 02:35:16;;;;;;;4.20;2.53;;;;;;;;;;5001451;28;20656;-51
2023/10/29 02:37:42;;;;;;;3.20;2.30;;;;;;;;;;5006302;28;20206;-50
2023/10/29 02:40:12;;;;;;;4.33;2.53;;;;;;;;;;5011177;28;20236;-50
2023/10/29 02:42:38;;;;;;;3.97;2.30;;;;;;;;;;5011008;28;20606;-50
2023/10/29 02:45:04;;;;;;;3.03;2.43;;;;;;;;;;5011359;28;20213;-50
2023/10/29 02:47:31;;;;;;;4.20;2.50;;;;;;;;;;5011363;28;20205;-50
2023/10/29 02:49:57;;;;;;;4.43;2.80;;;;;;;;;;5014203;28;20204;-50
2023/10/29 02:52:24;;;;;;;2.77;2.30;;;;;;;;;;5014529;28;20198;-50
2023/10/29 02:54:50;;;;;;;4.03;2.50;;;;;;;;;;5014327;28;20722;-50
2023/10/29 02:57:18;;;;;;;5.57;2.77;;;;;;;;;;5014575;28;20676;-50
2023/10/29 02:59:44;;;;;;;2.93;2.10;;;;;;;;;;5014352;28;20221;-50
2023/10/29 03:02:10;;;;;;;4.63;2.07;;;;;;;;;;5014514;28;20890;-51
2023/10/29 03:04:36;;;;;;;3.30;1.87;;;;;;;;;;5014382;28;20702;-51
2023/10/29 03:07:02;;;;;;;3.20;2.20;;;;;;;;;;5014444;28;20217;-51
2023/10/29 03:09:28;;;;;;;3.97;2.03;;;;;;;;;;5014256;28;20265;-51
2023/10/29 03:11:54;;;;;;;2.33;2.00;;;;;;;;;;5014212;28;20232;-51
2023/10/29 03:14:22;;;;;;;3.03;2.00;;;;;;;;;;5014268;28;20281;-51
2023/10/29 03:16:48;;;;;;;2.00;1.70;;;;;;;;;;5014363;28;20685;-51
2023/10/29 03:19:14;;;;;;;2.27;1.67;;;;;;;;;;5014237;28;20619;-51
2023/10/29 03:21:40;;;;;;;2.13;1.70;;;;;;;;;;5014279;28;20202;-51
2023/10/29 03:24:06;;;;;;;3.67;1.93;;;;;;;;;;5013852;28;20202;-51
2023/10/29 03:26:32;;;;;;;2.30;1.87;;;;;;;;;;5014169;28;20255;-51
2023/10/29 03:28:58;;;;;;;2.63;1.70;;;;;;;;;;5013982;28;20198;-50
2023/10/29 03:31:25;;;;;;;2.43;1.60;;;;;;;;;;5013902;28;20214;-51
2023/10/29 03:33:51;;;;;;;2.53;1.60;;;;;;;;;;5013786;28;20213;-51
2023/10/29 03:36:17;;;;;;;3.47;1.60;;;;;;;;;;5014030;28;20232;-51
2023/10/29 03:38:44;;;;;;;3.03;2.00;;;;;;;;;;5013620;28;20218;-51
2023/10/29 03:41:19;;;;;;;3.23;1.77;;;;;;;;;;5013762;28;20277;-51
2023/10/29 03:43:45;;;;;;;2.00;1.60;;;;;;;;;;5013635;28;20316;-51
2023/10/29 03:46:11;;;;;;;2.90;1.50;;;;;;;;;;5013718;28;20284;-51
2023/10/29 03:48:42;;;;;;;4.13;1.70;;;;;;;;;;5013519;28;20739;-51
2023/10/29 03:51:08;;;;;;;4.00;1.60;;;;;;;;;;5013497;28;20202;-51
2023/10/29 03:53:34;;;;;;;2.30;1.40;;;;;;;;;;5013477;28;20248;-51
2023/10/29 03:56:01;;;;;;;2.00;1.50;;;;;;;;;;5013446;28;20189;-52
2023/10/29 03:58:27;;;;;;;2.13;1.43;;;;;;;;;;5013316;28;20301;-52
2023/10/29 04:00:53;;;;;;;3.23;1.50;;;;;;;;;;5012084;28;20648;-52
2023/10/29 04:03:19;;;;;;;2.80;1.70;;;;;;;;;;5013556;28;20217;-49
2023/10/29 04:05:46;;;;;;;1.50;1.40;;;;;;;;;;5013422;28;20194;-49
2023/10/29 04:08:13;;;;;;;1.90;1.40;;;;;;;;;;5013305;28;20292;-50
2023/10/29 04:10:39;;;;;;;2.97;1.47;;;;;;;;;;5013183;28;20228;-49
2023/10/29 04:13:05;;;;;;;2.23;1.40;;;;;;;;;;5013246;28;20622;-49
2023/10/29 04:15:31;;;;;;;1.53;1.40;;;;;;;;;;5013259;28;20285;-49
2023/10/29 04:17:57;;;;;;;1.93;1.60;;;;;;;;;;5012928;28;20296;-51
2023/10/29 04:20:23;;;;;;;2.47;1.70;;;;;;;;;;5013225;28;20239;-51
2023/10/29 04:22:50;;;;;;;3.97;1.87;;;;;;;;;;5012874;28;20209;-49
2023/10/29 04:25:16;;;;;;;2.90;1.60;;;;;;;;;;5013125;28;20277;-49
2023/10/29 04:27:42;;;;;;;2.23;1.30;;;;;;;;;;5012737;28;20648;-49
2023/10/29 04:30:09;;;;;;;2.27;1.80;;;;;;;;;;5012954;28;20201;-49
2023/10/29 04:32:35;;;;;;;2.47;1.47;;;;;;;;;;5012823;28;20306;-49
2023/10/29 04:35:01;;;;;;;3.00;1.50;;;;;;;;;;5012797;28;20646;-50
2023/10/29 04:37:27;;;;;;;1.70;1.33;;;;;;;;;;5012690;28;20273;-50
2023/10/29 04:39:54;;;;;;;2.73;1.43;;;;;;;;;;5012535;28;20225;-49
2023/10/29 04:42:20;;;;;;;2.07;1.40;;;;;;;;;;5012508;28;20296;-52
2023/10/29 04:44:46;;;;;;;2.20;1.20;;;;;;;;;;5012725;28;20233;-50
2023/10/29 04:47:12;;;;;;;1.83;1.40;;;;;;;;;;5012471;28;20698;-51
2023/10/29 04:49:38;;;;;;;2.40;1.50;;;;;;;;;;5012549;28;20200;-51
2023/10/29 04:52:05;;;;;;;2.70;1.53;;;;;;;;;;5012467;28;20193;-49
2023/10/29 04:54:31;;;;;;;2.60;1.20;;;;;;;;;;5012517;28;20224;-50
2023/10/29 04:56:59;;;;;;;1.80;1.40;;;;;;;;;;5012296;28;20743;-49
2023/10/29 04:59:25;;;;;;;1.50;1.40;;;;;;;;;;5000388;28;20228;-50
2023/10/29 05:01:51;;;;;;;3.13;1.50;;;;;;;;;;4997024;28;20193;-49
2023/10/29 05:04:17;;;;;;;1.50;1.40;;;;;;;;;;4998873;28;20653;-50
2023/10/29 05:06:43;;;;;;;2.07;1.70;;;;;;;;;;5000475;28;20369;-50
2023/10/29 05:09:09;;;;;;;1.73;1.50;;;;;;;;;;4998705;28;20197;-50
2023/10/29 05:11:35;;;;;;;3.63;1.50;;;;;;;;;;4998232;28;20198;-49
2023/10/29 05:14:03;;;;;;;3.17;1.43;;;;;;;;;;5000396;28;20641;-50
2023/10/29 05:16:29;;;;;;;2.30;1.30;;;;;;;;;;4996876;28;20608;-50
2023/10/29 05:18:55;;;;;;;2.17;1.30;;;;;;;;;;4998373;28;20222;-51
2023/10/29 05:21:21;;;;;;;2.20;1.37;;;;;;;;;;5000102;28;20683;-51
2023/10/29 05:23:47;;;;;;;3.17;1.60;;;;;;;;;;4998404;28;20209;-50
2023/10/29 05:26:13;;;;;;;6.20;1.53;;;;;;;;;;4998402;28;20198;-50
2023/10/29 05:28:39;;;;;;;3.73;1.93;;;;;;;;;;4998405;28;20277;-49
2023/10/29 05:31:06;;;;;;;1.30;1.20;;;;;;;;;;4999924;28;20273;-49
2023/10/29 05:33:33;;;;;;;1.50;1.40;;;;;;;;;;4996698;28;20620;-49
2023/10/29 05:35:59;;;;;;;3.03;1.30;;;;;;;;;;4999931;28;20672;-52
2023/10/29 05:38:25;;;;;;;1.20;1.10;;;;;;;;;;4998168;28;20216;-49
2023/10/29 05:40:51;;;;;;;2.17;1.53;;;;;;;;;;4998156;28;20217;-50
2023/10/29 05:43:17;;;;;;;2.17;1.40;;;;;;;;;;4999911;28;20699;-50
2023/10/29 05:45:45;;;;;;;2.40;1.50;;;;;;;;;;4998012;28;20221;-49
2023/10/29 05:48:12;;;;;;;1.63;1.20;;;;;;;;;;4999918;28;20206;-50
2023/10/29 05:50:39;;;;;;;2.27;1.40;;;;;;;;;;4999796;28;20201;-50
2023/10/29 05:53:05;;;;;;;1.87;1.37;;;;;;;;;;4999728;28;20205;-50
2023/10/29 05:55:31;;;;;;;1.40;1.30;;;;;;;;;;4998302;28;20263;-50
2023/10/29 05:57:58;;;;;;;1.63;1.27;;;;;;;;;;4998473;28;20193;-49
2023/10/29 06:00:24;;;;;;;2.43;1.40;;;;;;;;;;4998103;28;20224;-50
2023/10/29 06:02:50;;;;;;;1.87;1.27;;;;;;;;;;4997975;28;20197;-51
2023/10/29 06:05:17;;;;;;;2.20;1.27;;;;;;;;;;4998206;28;20220;-51
2023/10/29 06:07:44;;;;;;;2.67;1.10;;;;;;;;;;4999842;28;20243;-51
2023/10/29 06:10:12;;;;;;;3.20;1.17;;;;;;;;;;4997982;28;20197;-51
2023/10/29 06:12:38;;;;;;;1.30;1.20;;;;;;;;;;4998097;28;20794;-51
2023/10/29 06:15:04;;;;;;;1.80;1.13;;;;;;;;;;4998029;28;20602;-51
2023/10/29 06:17:30;;;;;;;3.00;1.40;;;;;;;;;;4998144;28;20198;-51
2023/10/29 06:19:56;;;;;;;3.23;2.40;;;;;;;;;;4999474;28;20225;-51
2023/10/29 06:22:24;;;;;;;1.47;1.30;;;;;;;;;;4997849;28;20581;-50
2023/10/29 06:24:50;;;;;;;1.50;1.20;;;;;;;;;;5001115;28;20215;-51
2023/10/29 06:27:17;;;;;;;3.80;1.40;;;;;;;;;;5001865;28;20340;-50
2023/10/29 06:29:43;;;;;;;2.30;1.40;;;;;;;;;;5001408;28;20281;-51
2023/10/29 06:32:09;;;;;;;1.70;1.23;;;;;;;;;;5000800;28;20482;-49
2023/10/29 06:34:35;;;;;;;1.10;1.00;;;;;;;;;;5001458;28;20252;-50
2023/10/29 06:37:01;;;;;;;4.77;1.30;;;;;;;;;;5003187;28;20566;-51
2023/10/29 06:39:28;;;;;;;1.20;1.10;;;;;;;;;;5001164;28;20226;-50
2023/10/29 06:41:54;;;;;;;2.03;1.60;;;;;;;;;;5001157;28;20194;-50
2023/10/29 06:44:20;;;;;;;1.50;1.20;;;;;;;;;;5002816;28;20233;-52
2023/10/29 06:46:46;;;;;;;1.37;1.10;;;;;;;;;;5001298;28;20211;-51
2023/10/29 06:49:12;;;;;;;1.60;1.33;;;;;;;;;;5002907;28;20216;-50
2023/10/29 06:51:38;;;;;;;2.30;1.50;;;;;;;;;;5001209;28;20201;-51
2023/10/29 06:54:05;;;;;;;3.90;1.30;;;;;;;;;;5001160;28;20197;-51
2023/10/29 06:56:32;;;;;;;1.53;1.33;;;;;;;;;;5002736;28;20656;-49
2023/10/29 06:58:58;;;;;;;1.57;1.27;;;;;;;;;;5002293;28;20774;-49
2023/10/29 07:01:24;;;;;;;1.33;1.23;;;;;;;;;;5002693;28;20209;-50
2023/10/29 07:03:50;;;;;;;2.67;1.50;;;;;;;;;;5000832;28;20246;-50
2023/10/29 07:06:16;;;;;;;2.63;1.23;;;;;;;;;;5002760;28;20248;-50
2023/10/29 07:08:45;;;;;;;2.13;1.20;;;;;;;;;;5000549;28;20197;-50
2023/10/29 07:11:11;;;;;;;2.93;1.40;;;;;;;;;;5000808;28;20536;-50
2023/10/29 07:13:38;;;;;;;1.87;1.40;;;;;;;;;;5002371;28;20193;-50
2023/10/29 07:16:05;;;;;;;1.87;1.33;;;;;;;;;;5001095;28;20205;-50
2023/10/29 07:18:31;;;;;;;1.40;1.30;;;;;;;;;;5000697;28;20267;-50
2023/10/29 07:20:57;;;;;;;1.90;1.30;;;;;;;;;;5000546;28;20205;-50
2023/10/29 07:23:23;;;;;;;2.33;1.20;;;;;;;;;;5002207;28;20264;-50
2023/10/29 07:25:49;;;;;;;2.70;1.30;;;;;;;;;;5002011;28;20204;-50
2023/10/29 07:28:16;;;;;;;2.20;1.40;;;;;;;;;;5002148;28;20194;-50
2023/10/29 07:30:43;;;;;;;4.13;1.73;;;;;;;;;;5000391;28;20205;-50
2023/10/29 07:33:12;;;;;;;5.43;1.40;;;;;;;;;;5001722;28;20240;-51
2023/10/29 07:35:39;;;;;;;1.93;1.20;;;;;;;;;;5001628;28;20198;-50
2023/10/29 07:38:05;;;;;;;2.00;1.47;;;;;;;;;;5000051;28;20194;-50
2023/10/29 07:40:31;;;;;;;1.93;1.20;;;;;;;;;;5000093;28;20714;-50
2023/10/29 07:42:57;;;;;;;1.13;1.10;;;;;;;;;;4999773;28;20237;-49
2023/10/29 07:45:23;;;;;;;2.87;1.50;;;;;;;;;;5000020;28;20209;-50
2023/10/29 07:47:50;;;;;;;2.20;1.40;;;;;;;;;;5001623;28;20608;-51
2023/10/29 07:50:17;;;;;;;1.40;1.30;;;;;;;;;;5000226;28;20206;-50
2023/10/29 07:52:43;;;;;;;1.93;1.43;;;;;;;;;;4999785;28;20202;-50
2023/10/29 07:55:09;;;;;;;2.33;1.10;;;;;;;;;;4999707;28;20213;-51
2023/10/29 07:57:36;;;;;;;7.83;1.60;;;;;;;;;;5001380;28;20630;-51
2023/10/29 08:00:04;;;;;;;2.90;2.10;;;;;;;;;;4999761;28;20213;-51
2023/10/29 08:02:30;;;;;;;2.83;2.10;;;;;;;;;;4999865;28;20186;-49
2023/10/29 08:04:58;;;;;;;1.87;1.50;;;;;;;;;;4999686;28;20237;-49
2023/10/29 08:07:24;;;;;;;3.03;1.30;;;;;;;;;;4999573;28;20740;-49
2023/10/29 08:09:50;;;;;;;2.23;1.23;;;;;;;;;;5001279;28;20217;-50
2023/10/29 08:12:16;;;;;;;1.43;1.20;;;;;;;;;;4999871;28;20229;-49
2023/10/29 08:14:42;;;;;;;2.77;1.30;;;;;;;;;;5001323;28;20730;-50
2023/10/29 08:17:08;;;;;;;4.90;1.53;;;;;;;;;;4999445;28;20198;-49
2023/10/29 08:19:34;;;;;;;2.37;1.70;;;;;;;;;;5001087;28;20264;-49
2023/10/29 08:22:01;;;;;;;1.63;1.50;;;;;;;;;;5000944;28;20197;-49
2023/10/29 08:24:27;;;;;;;1.53;1.33;;;;;;;;;;4999459;28;20608;-49
2023/10/29 08:26:53;;;;;;;1.97;1.30;;;;;;;;;;5001019;28;20623;-49
2023/10/29 08:29:19;;;;;;;2.90;1.50;;;;;;;;;;5000987;28;20197;-49
2023/10/29 08:31:45;;;;;;;2.03;1.23;;;;;;;;;;4999303;28;20225;-50
2023/10/29 08:34:11;;;;;;;2.67;1.60;;;;;;;;;;5002741;28;20252;-49
2023/10/29 08:36:37;;;;;;;1.40;1.30;;;;;;;;;;5001004;28;20194;-49
2023/10/29 08:39:05;;;;;;;2.23;1.20;;;;;;;;;;4998910;28;20233;-49
2023/10/29 08:41:31;;;;;;;1.87;1.17;;;;;;;;;;5000902;28;20209;-49
2023/10/29 08:43:57;;;;;;;2.27;1.40;;;;;;;;;;5002172;28;20233;-49
2023/10/29 08:46:23;;;;;;;2.43;1.23;;;;;;;;;;5011833;28;20695;-50
2023/10/29 08:48:51;;;;;;;1.80;1.10;;;;;;;;;;5012457;28;20181;-49
2023/10/29 08:51:17;;;;;;;2.67;1.40;;;;;;;;;;5012682;28;20197;-52
2023/10/29 08:53:43;;;;;;;3.80;1.30;;;;;;;;;;5012353;28;20194;-51
2023/10/29 08:56:10;;;;;;;1.47;1.10;;;;;;;;;;5012380;28;20205;-52
2023/10/29 08:58:37;;;;;;;2.63;1.10;;;;;;;;;;5012377;28;20198;-53
2023/10/29 09:01:06;;;;;;;1.50;1.00;;;;;;;;;;5008898;28;20761;-50
2023/10/29 09:03:32;;;;;;;1.60;1.00;;;;;;;;;;5002321;28;20285;-49
2023/10/29 09:06:01;;;;;;;2.13;1.23;;;;;;;;;;5012251;28;20289;-49
2023/10/29 09:08:27;;;;;;;4.10;1.00;;;;;;;;;;5012176;28;20300;-49
2023/10/29 09:10:53;;;;;;;3.93;1.60;;;;;;;;;;5012051;28;20655;-50
2023/10/29 09:13:23;;;;;;;1.50;1.00;;;;;;;;;;5012296;28;20281;-48
2023/10/29 09:15:49;;;;;;;2.73;1.30;;;;;;;;;;5012018;28;20232;-46
2023/10/29 09:18:16;;;;;;;4.90;1.53;;;;;;;;;;5012084;28;20205;-47
2023/10/29 09:20:46;;;;;;;2.87;1.53;;;;;;;;;;5012088;28;20228;-48
2023/10/29 09:23:12;;;;;;;3.27;1.33;;;;;;;;;;5012111;28;20208;-47
2023/10/29 09:25:38;;;;;;;2.37;1.40;;;;;;;;;;5010157;28;20759;-47
2023/10/29 09:28:05;;;;;;;2.20;1.07;;;;;;;;;;4998414;28;20572;-47
2023/10/29 09:30:33;;;;;;;2.70;1.13;;;;;;;;;;4998476;28;20206;-46
2023/10/29 09:32:59;;;;;;;4.87;1.20;;;;;;;;;;4999888;28;20221;-48
2023/10/29 09:35:25;;;;;;;1.63;1.10;;;;;;;;;;4998516;28;20193;-48
2023/10/29 09:37:51;;;;;;;2.37;1.10;;;;;;;;;;5001603;28;20206;-48
2023/10/29 09:40:18;;;;;;;2.03;0.93;;;;;;;;;;4999769;28;20248;-47
2023/10/29 09:42:50;;;;;;;3.63;1.00;;;;;;;;;;4999919;28;20723;-48
2023/10/29 09:45:18;;;;;;;2.13;1.00;;;;;;;;;;5000165;28;20224;-48
2023/10/29 09:47:45;;;;;;;3.47;1.20;;;;;;;;;;5000147;28;20571;-48
2023/10/29 09:50:11;;;;;;;3.17;1.23;;;;;;;;;;4999760;28;20211;-48
2023/10/29 09:52:37;;;;;;;3.27;1.27;;;;;;;;;;4999750;28;20208;-48
2023/10/29 09:55:04;;;;;;;3.83;1.70;;;;;;;;;;4999847;28;20199;-49
2023/10/29 09:57:31;;;;;;;4.53;1.80;;;;;;;;;;5001236;28;20201;-49
2023/10/29 09:59:57;;;;;;;2.97;1.50;;;;;;;;;;5002255;28;20229;-49
2023/10/29 10:02:23;;;;;;;3.70;1.30;;;;;;;;;;5003953;28;20774;-49
2023/10/29 10:04:51;;;;;;;2.13;1.30;;;;;;;;;;5002392;28;20288;-49
2023/10/29 10:07:17;;;;;;;1.13;1.00;;;;;;;;;;5003974;28;20666;-48
2023/10/29 10:09:52;;;;;;;3.17;1.30;;;;;;;;;;5003878;28;20194;-48
2023/10/29 10:12:18;;;;;;;6.20;1.60;;;;;;;;;;5003884;28;20208;-48
2023/10/29 10:14:44;;;;;;;3.63;1.37;;;;;;;;;;5005661;28;20224;-48
2023/10/29 10:17:12;;;;;;;2.80;1.30;;;;;;;;;;5005388;28;20232;-48
2023/10/29 10:19:38;;;;;;;2.07;1.40;;;;;;;;;;5003578;28;20230;-48
2023/10/29 10:22:06;;;;;;;3.00;1.27;;;;;;;;;;5005216;28;20213;-48
2023/10/29 10:24:39;;;;;;;1.57;1.10;;;;;;;;;;5003655;28;20204;-48
2023/10/29 10:27:05;;;;;;;3.10;1.63;;;;;;;;;;5003511;28;20205;-48
2023/10/29 10:29:31;;;;;;;1.67;1.03;;;;;;;;;;5003618;28;20235;-48
2023/10/29 10:32:00;;;;;;;1.60;1.30;;;;;;;;;;5006514;28;20218;-48
2023/10/29 10:34:26;;;;;;;2.63;1.10;;;;;;;;;;5006826;28;20208;-48
2023/10/29 10:36:58;;;;;;;5.53;1.33;;;;;;;;;;5003766;28;20197;-48
2023/10/29 10:39:27;;;;;;;6.03;1.60;;;;;;;;;;5004784;28;20614;-48
2023/10/29 10:41:53;;;;;;;2.57;1.20;;;;;;;;;;5003243;28;20209;-49
2023/10/29 10:44:20;;;;;;;2.13;1.10;;;;;;;;;;5001447;28;20233;-49
2023/10/29 10:46:47;;;;;;;2.13;1.10;;;;;;;;;;5003229;28;20203;-49
2023/10/29 10:49:14;;;;;;;4.03;1.53;;;;;;;;;;5015172;28;20198;-48
2023/10/29 10:51:40;;;;;;;4.23;1.27;;;;;;;;;;5014824;28;20672;-48
2023/10/29 10:54:07;;;;;;;2.53;1.50;;;;;;;;;;5014823;28;20205;-49
2023/10/29 10:56:38;;;;;;;2.00;1.10;;;;;;;;;;5015056;28;20203;-47
2023/10/29 10:59:05;;;;;;;3.40;1.20;;;;;;;;;;5014748;28;20747;-48
2023/10/29 11:01:31;;;;;;;3.57;1.20;;;;;;;;;;5014942;28;20211;-47
2023/10/29 11:03:58;;;;;;;4.03;1.30;;;;;;;;;;5014751;28;20208;-47
2023/10/29 11:06:24;;;;;;;1.50;1.00;;;;;;;;;;5014610;28;20672;-47
2023/10/29 11:08:50;;;;;;;4.10;1.57;;;;;;;;;;5014028;28;20261;-50
2023/10/29 11:11:18;;;;;;;2.87;1.20;;;;;;;;;;5014866;28;20678;-47
2023/10/29 11:13:45;;;;;;;3.17;1.03;;;;;;;;;;5014807;28;20215;-48
2023/10/29 11:16:22;;;;;;;2.27;1.20;;;;;;;;;;5014461;28;20232;-48
2023/10/29 11:18:48;;;;;;;2.03;0.93;;;;;;;;;;5014501;28;20225;-48
2023/10/29 11:21:29;;;;;;;3.00;1.30;;;;;;;;;;5014516;28;20214;-48
2023/10/29 11:24:10;;;;;;;4.53;1.33;;;;;;;;;;5014296;28;20209;-48
2023/10/29 11:26:36;;;;;;;3.87;1.70;;;;;;;;;;5014069;28;20198;-48
2023/10/29 11:29:03;;;;;;;2.03;1.40;;;;;;;;;;5014333;28;20254;-49
2023/10/29 11:31:29;;;;;;;2.30;1.50;;;;;;;;;;5014230;28;20233;-49
2023/10/29 11:34:14;;;;;;;3.33;1.43;;;;;;;;;;5014111;28;20605;-49
2023/10/29 11:36:42;;;;;;;3.50;1.30;;;;;;;;;;5010718;28;20202;-49
2023/10/29 11:39:27;;;;;;;2.30;1.30;;;;;;;;;;5005397;28;20575;-49
2023/10/29 11:41:54;;;;;;;1.70;1.00;;;;;;;;;;5003769;28;20197;-49
2023/10/29 11:44:22;;;;;;;2.03;1.20;;;;;;;;;;5003482;28;20620;-49
2023/10/29 11:47:01;;;;;;;2.60;1.00;;;;;;;;;;5001764;28;20205;-48
2023/10/29 11:49:28;;;;;;;3.10;1.20;;;;;;;;;;5003802;28;20286;-49
2023/10/29 11:51:56;;;;;;;2.17;0.87;;;;;;;;;;5001660;28;20209;-48
2023/10/29 11:54:22;;;;;;;1.53;1.10;;;;;;;;;;5003421;28;20659;-49
2023/10/29 11:56:49;;;;;;;1.83;1.30;;;;;;;;;;5001853;28;20208;-48
2023/10/29 11:59:15;;;;;;;4.60;1.10;;;;;;;;;;5001634;28;20265;-49
2023/10/29 12:01:43;;;;;;;3.50;1.13;;;;;;;;;;5003562;28;20234;-50
2023/10/29 12:04:09;;;;;;;1.80;1.10;;;;;;;;;;5001434;28;20583;-50
2023/10/29 12:06:39;;;;;;;1.23;1.10;;;;;;;;;;4999815;28;20289;-50
2023/10/29 12:09:13;;;;;;;3.13;1.17;;;;;;;;;;5001579;28;20189;-49
2023/10/29 12:11:39;;;;;;;2.40;1.20;;;;;;;;;;5003390;28;20209;-48
2023/10/29 12:14:05;;;;;;;1.83;1.00;;;;;;;;;;5003264;28;20198;-49
2023/10/29 12:16:32;;;;;;;2.83;1.07;;;;;;;;;;4999745;28;20426;-48
2023/10/29 12:18:59;;;;;;;1.57;1.00;;;;;;;;;;5004695;28;20206;-49
2023/10/29 12:21:25;;;;;;;0.60;0.60;;;;;;;;;;4998648;28;20205;-48
2023/10/29 12:23:51;;;;;;;1.33;1.03;;;;;;;;;;5001337;28;20284;-49
2023/10/29 12:26:18;;;;;;;1.93;0.90;;;;;;;;;;4999649;28;20231;-49
2023/10/29 12:28:45;;;;;;;1.70;1.10;;;;;;;;;;5002962;28;20286;-48
2023/10/29 12:31:23;;;;;;;1.07;0.83;;;;;;;;;;5002809;28;20225;-48
2023/10/29 12:33:54;;;;;;;2.03;1.00;;;;;;;;;;5002919;28;20673;-49
2023/10/29 12:36:23;;;;;;;1.87;1.00;;;;;;;;;;5002766;28;20198;-49
2023/10/29 12:38:49;;;;;;;1.23;1.00;;;;;;;;;;4999251;28;20622;-48
2023/10/29 12:41:15;;;;;;;2.17;1.10;;;;;;;;;;5004307;28;20298;-47
2023/10/29 12:43:52;;;;;;;1.93;0.80;;;;;;;;;;5078418;28;20982;-50
2023/10/29 12:46:19;;;;;;;1.70;0.70;;;;;;;;;;5079176;28;20196;-49
2023/10/29 12:48:59;;;;;;;1.37;1.00;;;;;;;;;;5079081;28;20201;-49
2023/10/29 12:51:26;;;;;;;2.03;1.20;;;;;;;;;;5078903;28;20599;-49
2023/10/29 12:53:52;;;;;;;1.60;1.00;;;;;;;;;;5077270;28;20192;-49
2023/10/29 12:56:18;;;;;;;1.93;1.10;;;;;;;;;;5079062;28;20189;-49
2023/10/29 12:58:44;;;;;;;1.03;0.80;;;;;;;;;;5078938;28;20267;-49
2023/10/29 13:01:12;;;;;;;2.10;1.23;;;;;;;;;;5077076;28;20757;-49
2023/10/29 13:03:38;;;;;;;1.43;0.80;;;;;;;;;;5078658;28;20521;-50
2023/10/29 13:06:04;;;;;;;5.60;1.30;;;;;;;;;;5082097;28;20205;-50
2023/10/29 13:08:30;;;;;;;2.07;1.23;;;;;;;;;;5078826;28;20200;-49
2023/10/29 13:10:57;;;;;;;1.63;1.00;;;;;;;;;;5078188;28;20208;-49
2023/10/29 13:13:23;;;;;;;3.70;0.93;;;;;;;;;;5080035;28;20477;-47
2023/10/29 13:15:49;;;;;;;1.43;1.00;;;;;;;;;;5080013;28;20215;-47
2023/10/29 13:18:16;;;;;;;1.77;0.90;;;;;;;;;;5076357;28;20188;-47
2023/10/29 13:20:42;;;;;;;3.47;1.13;;;;;;;;;;5078160;28;20226;-48
2023/10/29 13:23:08;;;;;;;1.13;0.80;;;;;;;;;;5079553;28;20251;-48
2023/10/29 13:25:34;;;;;;;2.50;1.00;;;;;;;;;;5076299;28;20204;-48
2023/10/29 13:28:00;;;;;;;1.20;0.80;;;;;;;;;;5081386;28;20199;-50
2023/10/29 13:30:27;;;;;;;1.73;0.90;;;;;;;;;;5077940;28;20202;-49
2023/10/29 13:32:53;;;;;;;1.47;0.77;;;;;;;;;;5077671;28;20730;-49
2023/10/29 13:35:20;;;;;;;1.77;0.93;;;;;;;;;;5076196;28;20688;-48
2023/10/29 13:37:47;;;;;;;1.77;1.20;;;;;;;;;;5077950;28;20206;-49
2023/10/29 13:40:15;;;;;;;3.07;1.10;;;;;;;;;;5079362;28;20223;-48
2023/10/29 13:42:41;;;;;;;1.10;0.90;;;;;;;;;;5079261;28;20244;-48
2023/10/29 13:45:07;;;;;;;1.93;1.07;;;;;;;;;;5077535;28;20196;-49
2023/10/29 13:47:34;;;;;;;3.50;1.10;;;;;;;;;;5077790;28;20192;-49
2023/10/29 13:50:00;;;;;;;1.47;1.00;;;;;;;;;;5079334;28;20203;-49
2023/10/29 13:52:27;;;;;;;2.07;0.83;;;;;;;;;;5077387;28;20184;-49
2023/10/29 13:54:53;;;;;;;2.43;1.00;;;;;;;;;;5065439;28;20198;-49
2023/10/29 13:57:19;;;;;;;1.43;1.10;;;;;;;;;;5065619;28;20635;-49
2023/10/29 13:59:46;;;;;;;2.47;1.10;;;;;;;;;;5063881;28;20235;-49
2023/10/29 14:02:12;;;;;;;1.77;1.20;;;;;;;;;;5063549;28;20695;-49
2023/10/29 14:04:38;;;;;;;1.43;0.97;;;;;;;;;;5062119;28;20195;-48
2023/10/29 14:07:04;;;;;;;2.07;1.20;;;;;;;;;;5063680;28;20202;-49
2023/10/29 14:09:32;;;;;;;1.67;1.17;;;;;;;;;;5065676;28;20290;-49
2023/10/29 14:11:59;;;;;;;2.23;1.10;;;;;;;;;;5065439;28;20205;-49
2023/10/29 14:14:25;;;;;;;2.60;1.40;;;;;;;;;;5063351;28;20204;-49
2023/10/29 14:16:51;;;;;;;1.23;0.83;;;;;;;;;;5070449;28;20208;-48
2023/10/29 14:19:18;;;;;;;1.37;1.10;;;;;;;;;;5063669;28;20252;-49
2023/10/29 14:21:48;;;;;;;2.50;1.40;;;;;;;;;;5061830;28;20206;-48
2023/10/29 14:24:14;;;;;;;2.90;1.20;;;;;;;;;;5061760;28;20599;-49
2023/10/29 14:26:41;;;;;;;0.97;0.90;;;;;;;;;;5063706;28;20768;-48
2023/10/29 14:29:07;;;;;;;1.83;1.03;;;;;;;;;;5065007;28;20200;-48
2023/10/29 14:31:35;;;;;;;4.80;1.20;;;;;;;;;;5061703;28;20242;-49
2023/10/29 14:34:02;;;;;;;1.20;1.10;;;;;;;;;;5063320;28;20752;-49
2023/10/29 14:36:28;;;;;;;1.90;1.10;;;;;;;;;;5063327;28;20212;-48
2023/10/29 14:38:54;;;;;;;1.90;1.20;;;;;;;;;;5063195;28;20227;-48
2023/10/29 14:41:20;;;;;;;1.97;1.03;;;;;;;;;;5063750;28;20241;-48